createdAt,value
2022-10-05T00:01:25.050Z,8.76
2022-10-05T00:03:53.097Z,8.82
2022-10-05T00:06:19.586Z,8.78
2022-10-05T00:08:46.151Z,8.71
2022-10-05T00:11:16.683Z,8.54
2022-10-05T00:13:43.267Z,8.61
2022-10-05T00:16:16.184Z,8.54
2022-10-05T00:18:45.135Z,8.72
2022-10-05T00:21:22.992Z,8.62
2022-10-05T00:23:49.841Z,8.67
2022-10-05T00:26:18.663Z,8.75
2022-10-05T00:28:45.120Z,8.48
2022-10-05T00:31:19.959Z,8.53
2022-10-05T00:33:46.930Z,8.50
2022-10-05T00:36:13.666Z,8.50
2022-10-05T00:38:40.738Z,8.59
2022-10-05T00:41:16.617Z,8.62
2022-10-05T00:43:51.350Z,8.62
2022-10-05T00:46:26.163Z,8.44
2022-10-05T00:49:05.450Z,8.30
2022-10-05T00:51:35.846Z,8.31
2022-10-05T00:54:08.466Z,8.41
2022-10-05T00:57:01.210Z,8.52
2022-10-05T00:59:33.923Z,8.32
2022-10-05T01:02:06.841Z,8.23
2022-10-05T01:04:51.827Z,8.20
2022-10-05T01:07:32.028Z,8.32
2022-10-05T01:10:09.543Z,8.23
2022-10-05T01:12:55.034Z,8.23
2022-10-05T01:15:31.422Z,8.30
2022-10-05T01:18:00.725Z,8.39
2022-10-05T01:20:50.541Z,8.42
2022-10-05T01:23:26.123Z,8.20
2022-10-05T01:25:52.578Z,8.20
2022-10-05T01:28:31.364Z,8.29
2022-10-05T01:30:57.873Z,8.09
2022-10-05T01:33:43.086Z,7.91
2022-10-05T01:36:27.295Z,8.07
2022-10-05T01:38:59.756Z,7.91
2022-10-05T01:41:48.769Z,8.06
2022-10-05T01:44:20.983Z,7.99
2022-10-05T01:47:17.014Z,7.86
2022-10-05T01:50:00.041Z,7.86
2022-10-05T01:52:29.474Z,8.11
2022-10-05T01:55:12.966Z,8.20
2022-10-05T01:57:49.002Z,8.07
2022-10-05T02:00:17.951Z,8.11
2022-10-05T02:03:02.486Z,8.01
2022-10-05T02:05:44.994Z,7.90
2022-10-05T02:08:17.706Z,7.88
2022-10-05T02:10:44.584Z,8.06
2022-10-05T02:13:29.502Z,7.99
2022-10-05T02:16:01.660Z,7.78
2022-10-05T02:18:30.386Z,7.67
2022-10-05T02:21:00.784Z,7.83
2022-10-05T02:23:32.754Z,7.93
2022-10-05T02:26:00.886Z,8.07
2022-10-05T02:28:33.723Z,8.01
2022-10-05T02:31:11.809Z,8.00
2022-10-05T02:33:38.666Z,7.61
2022-10-05T02:36:14.649Z,7.75
2022-10-05T02:38:47.997Z,7.67
2022-10-05T02:41:33.641Z,7.60
2022-10-05T02:44:09.236Z,7.67
2022-10-05T02:46:41.708Z,7.66
2022-10-05T02:49:09.302Z,7.73
2022-10-05T02:51:45.069Z,7.75
2022-10-05T02:54:29.980Z,7.75
2022-10-05T02:56:59.459Z,7.56
2022-10-05T02:59:38.004Z,7.49
2022-10-05T03:02:15.560Z,7.41
2022-10-05T03:04:58.754Z,7.56
2022-10-05T03:07:34.984Z,7.52
2022-10-05T03:10:06.280Z,7.47
2022-10-05T03:12:39.888Z,7.39
2022-10-05T03:15:06.794Z,7.44
2022-10-05T03:17:45.916Z,7.24
2022-10-05T03:20:24.099Z,7.24
2022-10-05T03:22:54.470Z,7.13
2022-10-05T03:25:31.635Z,7.17
2022-10-05T03:28:03.491Z,7.37
2022-10-05T03:30:35.343Z,7.38
2022-10-05T03:33:17.387Z,7.39
2022-10-05T03:35:53.321Z,7.49
2022-10-05T03:38:31.949Z,7.51
2022-10-05T03:40:58.480Z,7.41
2022-10-05T03:43:29.326Z,7.37
2022-10-05T03:45:58.651Z,7.11
2022-10-05T03:48:48.463Z,7.20
2022-10-05T03:51:18.106Z,7.14
2022-10-05T03:53:48.970Z,7.00
2022-10-05T03:56:19.677Z,6.91
2022-10-05T03:58:53.489Z,7.12
2022-10-05T04:01:22.643Z,7.41
2022-10-05T04:03:57.154Z,7.41
2022-10-05T04:06:44.283Z,7.31
2022-10-05T04:09:15.260Z,7.21
2022-10-05T04:11:50.921Z,7.15
2022-10-05T04:14:21.606Z,6.91
2022-10-05T04:16:52.410Z,6.88
2022-10-05T04:19:24.565Z,7.05
2022-10-05T04:21:55.218Z,7.07
2022-10-05T04:24:26.198Z,7.03
2022-10-05T04:26:58.779Z,7.11
2022-10-05T04:29:33.725Z,6.98
2022-10-05T04:32:05.955Z,6.98
2022-10-05T04:34:38.719Z,7.06
2022-10-05T04:37:08.589Z,6.86
2022-10-05T04:39:45.613Z,6.91
2022-10-05T04:42:30.966Z,7.08
2022-10-05T04:45:00.819Z,7.06
2022-10-05T04:47:35.329Z,6.95
2022-10-05T04:50:20.711Z,7.01
2022-10-05T04:53:00.171Z,7.01
2022-10-05T04:55:45.297Z,7.14
2022-10-05T04:58:24.591Z,6.92
2022-10-05T05:01:03.421Z,6.91
2022-10-05T05:03:38.942Z,6.99
2022-10-05T05:06:17.821Z,7.02
2022-10-05T05:08:51.358Z,6.88
2022-10-05T05:11:40.762Z,7.08
2022-10-05T05:14:13.453Z,7.14
2022-10-05T05:16:41.454Z,7.08
2022-10-05T05:19:30.530Z,6.82
2022-10-05T05:22:07.378Z,6.88
2022-10-05T05:24:43.718Z,6.93
2022-10-05T05:27:29.243Z,7.04
2022-10-05T05:30:04.338Z,6.94
2022-10-05T05:32:46.648Z,6.88
2022-10-05T05:35:24.999Z,7.23
2022-10-05T05:38:10.916Z,7.38
2022-10-05T05:40:44.509Z,7.61
2022-10-05T05:43:29.603Z,7.73
2022-10-05T05:46:01.055Z,7.75
2022-10-05T05:48:29.152Z,7.77
2022-10-05T05:51:14.981Z,7.93
2022-10-05T05:53:46.143Z,8.14
2022-10-05T05:56:14.277Z,8.31
2022-10-05T05:58:54.631Z,8.47
2022-10-05T06:01:34.217Z,8.40
2022-10-05T06:04:24.934Z,8.47
2022-10-05T06:06:53.205Z,8.84
2022-10-05T06:09:26.720Z,8.74
2022-10-05T06:12:16.732Z,8.95
2022-10-05T06:14:46.023Z,9.14
2022-10-05T06:17:19.221Z,9.30
2022-10-05T06:19:46.687Z,9.57
2022-10-05T06:22:19.838Z,10.04
2022-10-05T06:24:58.643Z,10.77
2022-10-05T06:27:39.249Z,11.04
2022-10-05T06:30:15.159Z,11.45
2022-10-05T06:32:50.781Z,11.89
2022-10-05T06:35:33.179Z,12.22
2022-10-05T06:38:05.822Z,12.72
2022-10-05T06:40:51.119Z,12.77
2022-10-05T06:43:24.793Z,13.25
2022-10-05T06:46:32.688Z,13.28
2022-10-05T06:49:45.566Z,13.68
2022-10-05T06:52:38.123Z,13.63
2022-10-05T06:55:14.336Z,13.82
2022-10-05T06:58:00.189Z,13.33
2022-10-05T07:00:39.071Z,13.27
2022-10-05T07:03:25.872Z,14.01
2022-10-05T07:05:59.041Z,14.78
2022-10-05T07:08:46.822Z,14.62
2022-10-05T07:11:23.118Z,14.98
2022-10-05T07:14:13.229Z,14.26
2022-10-05T07:16:52.603Z,14.88
2022-10-05T07:19:29.212Z,15.06
2022-10-05T07:21:58.799Z,15.34
2022-10-05T07:24:30.567Z,15.33
2022-10-05T07:27:13.174Z,15.13
2022-10-05T07:29:52.516Z,15.84
2022-10-05T07:32:38.007Z,15.59
2022-10-05T07:35:04.868Z,15.68
2022-10-05T07:37:53.242Z,16.10
2022-10-05T07:40:32.651Z,15.99
2022-10-05T07:43:03.290Z,16.00
2022-10-05T07:45:44.446Z,16.32
2022-10-05T07:48:20.633Z,16.68
2022-10-05T07:50:58.679Z,17.62
2022-10-05T07:53:35.044Z,17.77
2022-10-05T07:56:10.355Z,16.83
2022-10-05T07:58:43.298Z,16.82
2022-10-05T08:01:13.045Z,17.38
2022-10-05T08:03:49.437Z,17.42
2022-10-05T08:06:28.906Z,17.78
2022-10-05T08:08:57.336Z,17.71
2022-10-05T08:11:44.333Z,17.18
2022-10-05T08:14:20.371Z,18.26
2022-10-05T08:16:48.478Z,17.93
2022-10-05T08:19:15.234Z,19.02
2022-10-05T08:21:45.231Z,18.14
2022-10-05T08:24:11.951Z,18.20
2022-10-05T08:26:49.866Z,17.65
2022-10-05T08:29:42.362Z,18.10
2022-10-05T08:32:14.944Z,17.77
2022-10-05T08:34:47.410Z,18.85
2022-10-05T08:37:18.940Z,19.51
2022-10-05T08:40:03.798Z,19.15
2022-10-05T08:42:39.354Z,19.01
2022-10-05T08:45:26.835Z,19.70
2022-10-05T08:48:01.563Z,19.58
2022-10-05T08:50:43.020Z,18.96
2022-10-05T08:53:37.955Z,19.63
2022-10-05T08:56:27.797Z,18.98
2022-10-05T08:59:24.254Z,19.45
2022-10-05T09:02:08.314Z,20.34
2022-10-05T09:04:53.531Z,19.41
2022-10-05T09:07:37.939Z,19.61
2022-10-05T09:10:13.503Z,19.63
2022-10-05T09:12:46.049Z,20.13
2022-10-05T09:15:31.260Z,20.06
2022-10-05T09:18:07.215Z,21.17
2022-10-05T09:20:48.288Z,21.41
2022-10-05T09:23:27.090Z,20.78
2022-10-05T09:25:56.643Z,20.33
2022-10-05T09:28:25.109Z,20.81
2022-10-05T09:30:58.889Z,21.19
2022-10-05T09:33:44.195Z,21.25
2022-10-05T09:36:30.520Z,20.52
2022-10-05T09:39:16.170Z,21.51
2022-10-05T09:41:46.463Z,21.88
2022-10-05T09:44:13.311Z,21.48
2022-10-05T09:46:45.927Z,21.77
2022-10-05T09:49:18.126Z,21.25
2022-10-05T09:52:03.661Z,22.29
2022-10-05T09:54:48.850Z,22.21
2022-10-05T09:57:15.259Z,22.17
2022-10-05T09:59:42.210Z,21.83
2022-10-05T10:02:18.428Z,21.93
2022-10-05T10:05:05.683Z,22.07
2022-10-05T10:07:50.951Z,21.97
2022-10-05T10:10:36.257Z,22.38
2022-10-05T10:13:14.799Z,22.36
2022-10-05T10:16:03.573Z,21.00
2022-10-05T10:18:53.163Z,22.21
2022-10-05T10:21:34.946Z,21.59
2022-10-05T10:24:04.460Z,22.47
2022-10-05T10:26:44.787Z,23.00
2022-10-05T10:29:30.402Z,23.21
2022-10-05T10:31:59.910Z,24.11
2022-10-05T10:34:45.351Z,23.75
2022-10-05T10:37:30.782Z,23.77
2022-10-05T10:40:15.858Z,23.51
2022-10-05T10:43:05.546Z,22.91
2022-10-05T10:45:45.398Z,23.63
2022-10-05T10:48:11.866Z,22.72
2022-10-05T10:50:52.528Z,22.28
2022-10-05T10:53:37.334Z,23.01
2022-10-05T10:56:10.142Z,23.69
2022-10-05T10:58:59.669Z,23.91
2022-10-05T11:01:26.135Z,23.39
2022-10-05T11:04:11.415Z,22.56
2022-10-05T11:06:56.653Z,23.10
2022-10-05T11:09:54.743Z,23.62
2022-10-05T11:12:59.575Z,24.80
2022-10-05T11:15:28.600Z,23.75
2022-10-05T11:17:58.190Z,24.47
2022-10-05T11:20:33.961Z,24.80
2022-10-05T11:23:03.347Z,24.57
2022-10-05T11:25:38.302Z,24.37
2022-10-05T11:28:19.691Z,24.71
2022-10-05T11:31:04.994Z,23.52
2022-10-05T11:33:34.419Z,24.16
2022-10-05T11:36:21.336Z,23.80
2022-10-05T11:39:13.791Z,25.05
2022-10-05T11:41:58.586Z,24.67
2022-10-05T11:44:45.166Z,24.93
2022-10-05T11:47:11.610Z,24.15
2022-10-05T11:49:50.010Z,23.87
2022-10-05T11:52:16.833Z,23.64
2022-10-05T11:55:11.289Z,23.39
2022-10-05T11:57:43.117Z,22.87
2022-10-05T12:00:12.845Z,23.29
2022-10-05T12:02:45.663Z,21.57
2022-10-05T12:05:21.166Z,22.56
2022-10-05T12:07:50.330Z,22.10
2022-10-05T12:10:21.636Z,22.12
2022-10-05T12:13:04.578Z,22.03
2022-10-05T12:15:37.263Z,22.28
2022-10-05T12:18:13.490Z,22.74
2022-10-05T12:20:54.145Z,23.14
2022-10-05T12:23:28.111Z,22.70
2022-10-05T12:25:57.610Z,22.40
2022-10-05T12:28:29.951Z,22.18
2022-10-05T12:31:02.609Z,22.23
2022-10-05T12:33:38.205Z,21.91
2022-10-05T12:36:14.134Z,21.74
2022-10-05T12:38:40.603Z,21.74
2022-10-05T12:41:14.307Z,21.82
2022-10-05T12:43:47.087Z,21.55
2022-10-05T12:46:20.195Z,21.70
2022-10-05T12:48:56.018Z,22.35
2022-10-05T12:51:31.791Z,22.07
2022-10-05T12:53:58.196Z,22.37
2022-10-05T12:56:44.742Z,23.06
2022-10-05T12:59:18.031Z,22.88
2022-10-05T13:01:59.771Z,23.74
2022-10-05T13:04:33.001Z,24.27
2022-10-05T13:07:08.081Z,24.14
2022-10-05T13:09:37.627Z,23.80
2022-10-05T13:12:12.145Z,23.72
2022-10-05T13:14:58.821Z,23.65
2022-10-05T13:17:39.264Z,23.28
2022-10-05T13:20:37.951Z,23.26
2022-10-05T13:23:19.161Z,22.98
2022-10-05T13:26:08.813Z,23.10
2022-10-05T13:28:41.470Z,23.03
2022-10-05T13:31:24.648Z,23.07
2022-10-05T13:33:58.389Z,22.93
2022-10-05T13:36:31.391Z,22.85
2022-10-05T13:39:03.694Z,22.76
2022-10-05T13:41:48.542Z,22.30
2022-10-05T13:44:24.065Z,21.97
2022-10-05T13:47:01.084Z,21.63
2022-10-05T13:52:20.411Z,21.01
2022-10-05T13:55:09.857Z,20.95
2022-10-05T13:57:58.780Z,20.67
2022-10-05T14:00:27.001Z,20.72
2022-10-05T14:02:54.973Z,20.81
2022-10-05T14:05:21.490Z,20.95
2022-10-05T14:07:50.183Z,20.88
2022-10-05T14:10:29.258Z,20.61
2022-10-05T14:12:55.790Z,21.04
2022-10-05T14:15:28.061Z,21.46
2022-10-05T14:17:54.720Z,21.37
2022-10-05T14:20:28.822Z,21.41
2022-10-05T14:23:00.390Z,21.52
2022-10-05T14:25:27.933Z,21.72
2022-10-05T14:27:57.147Z,21.45
2022-10-05T14:30:25.669Z,21.58
2022-10-05T14:32:55.781Z,21.40
2022-10-05T14:35:25.329Z,21.41
2022-10-05T14:38:00.404Z,21.28
2022-10-05T14:40:28.858Z,20.88
2022-10-05T14:42:56.256Z,21.23
2022-10-05T14:45:25.049Z,21.17
2022-10-05T14:47:53.359Z,20.85
2022-10-05T14:50:29.663Z,20.99
2022-10-05T14:53:11.284Z,21.00
2022-10-05T14:55:48.542Z,20.58
2022-10-05T14:58:15.169Z,20.34
2022-10-05T15:00:51.576Z,20.04
2022-10-05T15:03:27.300Z,19.46
2022-10-05T15:05:55.686Z,19.29
2022-10-05T15:08:24.860Z,19.64
2022-10-05T15:10:56.594Z,19.23
2022-10-05T15:13:30.570Z,19.20
2022-10-05T15:16:00.694Z,19.26
2022-10-05T15:18:39.827Z,19.13
2022-10-05T15:21:09.957Z,18.38
2022-10-05T15:23:47.424Z,18.30
2022-10-05T15:26:19.735Z,18.50
2022-10-05T15:28:49.201Z,18.11
2022-10-05T15:31:37.651Z,17.91
2022-10-05T15:34:09.343Z,18.04
2022-10-05T15:36:42.944Z,18.18
2022-10-05T15:39:26.932Z,18.18
2022-10-05T15:42:00.306Z,18.03
2022-10-05T15:44:29.753Z,18.12
2022-10-05T15:46:58.643Z,18.01
2022-10-05T15:49:43.953Z,17.91
2022-10-05T15:52:28.749Z,17.87
2022-10-05T15:54:55.162Z,17.31
2022-10-05T15:57:21.545Z,17.28
2022-10-05T15:59:51.030Z,17.07
2022-10-05T16:02:26.003Z,17.16
2022-10-05T16:05:03.820Z,16.81
2022-10-05T16:07:59.280Z,16.92
2022-10-05T16:10:26.202Z,16.68
2022-10-05T16:12:55.542Z,16.58
2022-10-05T16:15:29.591Z,16.48
2022-10-05T16:17:55.976Z,16.48
2022-10-05T16:20:22.411Z,16.32
2022-10-05T16:23:03.802Z,16.50
2022-10-05T16:25:49.068Z,16.52
2022-10-05T16:28:15.529Z,16.53
2022-10-05T16:30:51.070Z,16.50
2022-10-05T16:33:23.672Z,16.54
2022-10-05T16:36:02.907Z,16.36
2022-10-05T16:38:29.381Z,16.48
2022-10-05T16:41:13.792Z,16.52
2022-10-05T16:43:44.839Z,16.37
2022-10-05T16:46:27.762Z,16.17
2022-10-05T16:48:54.507Z,15.90
2022-10-05T16:51:31.824Z,16.09
2022-10-05T16:54:18.061Z,16.17
2022-10-05T16:56:48.091Z,15.96
2022-10-05T16:59:28.578Z,15.98
2022-10-05T17:02:15.315Z,16.08
2022-10-05T17:05:01.643Z,15.82
2022-10-05T17:07:37.241Z,15.65
2022-10-05T17:10:11.604Z,15.72
2022-10-05T17:12:38.156Z,15.62
2022-10-05T17:15:14.888Z,15.39
2022-10-05T17:18:19.937Z,15.45
2022-10-05T17:21:07.837Z,15.49
2022-10-05T17:23:34.336Z,15.44
2022-10-05T17:26:10.216Z,15.24
2022-10-05T17:28:38.859Z,15.29
2022-10-05T17:31:08.493Z,15.17
2022-10-05T17:33:55.189Z,15.04
2022-10-05T17:36:21.608Z,15.19
2022-10-05T17:39:12.263Z,15.25
2022-10-05T17:41:38.834Z,15.12
2022-10-05T17:44:16.195Z,15.16
2022-10-05T17:46:46.033Z,14.96
2022-10-05T17:49:15.519Z,14.85
2022-10-05T17:52:00.659Z,14.87
2022-10-05T17:54:49.806Z,14.96
2022-10-05T17:57:19.849Z,14.93
2022-10-05T17:59:56.815Z,14.81
2022-10-05T18:02:36.360Z,14.68
2022-10-05T18:05:04.016Z,14.58
2022-10-05T18:07:31.592Z,14.70
2022-10-05T18:09:59.482Z,14.69
2022-10-05T18:12:40.167Z,14.72
2022-10-05T18:15:06.574Z,14.70
2022-10-05T18:17:36.034Z,14.67
2022-10-05T18:20:13.192Z,14.62
2022-10-05T18:22:39.717Z,14.59
2022-10-05T18:25:10.133Z,14.50
2022-10-05T18:28:03.982Z,14.57
2022-10-05T18:30:32.611Z,14.39
2022-10-05T18:33:08.211Z,14.45
2022-10-05T18:35:46.994Z,14.44
2022-10-05T18:38:13.581Z,14.38
2022-10-05T18:40:46.038Z,14.26
2022-10-05T18:43:29.039Z,14.36
2022-10-05T18:46:05.189Z,14.33
2022-10-05T18:48:35.618Z,14.37
2022-10-05T18:51:08.210Z,14.37
2022-10-05T18:53:41.101Z,14.31
2022-10-05T18:56:30.076Z,14.25
2022-10-05T18:59:14.824Z,14.21
2022-10-05T19:01:50.627Z,14.19
2022-10-05T19:04:29.322Z,14.15
2022-10-05T19:06:58.786Z,14.17
2022-10-05T19:09:25.176Z,14.10
2022-10-05T19:12:01.251Z,13.94
2022-10-05T19:14:27.702Z,13.85
2022-10-05T19:17:03.298Z,13.94
2022-10-05T19:19:38.561Z,14.06
2022-10-05T19:22:05.007Z,13.93
2022-10-05T19:24:41.659Z,13.95
2022-10-05T19:27:13.685Z,13.94
2022-10-05T19:29:49.229Z,13.73
2022-10-05T19:32:15.680Z,13.75
2022-10-05T19:34:42.247Z,13.63
2022-10-05T19:37:15.599Z,13.69
2022-10-05T19:39:47.995Z,13.69
2022-10-05T19:42:17.579Z,13.58
2022-10-05T19:44:47.740Z,13.72
2022-10-05T19:47:32.281Z,13.69
2022-10-05T19:49:59.626Z,13.68
2022-10-05T19:52:40.665Z,13.48
2022-10-05T19:55:13.251Z,13.59
2022-10-05T19:57:46.134Z,13.59
2022-10-05T20:00:19.805Z,13.56
2022-10-05T20:02:46.725Z,13.39
2022-10-05T20:05:13.691Z,13.39
2022-10-05T20:07:41.008Z,13.35
2022-10-05T20:10:29.225Z,13.36
2022-10-05T20:12:59.774Z,13.37
2022-10-05T20:15:46.075Z,13.20
2022-10-05T20:18:50.172Z,13.22
2022-10-05T20:21:37.081Z,13.05
2022-10-05T20:24:11.348Z,12.94
2022-10-05T20:27:01.096Z,12.91
2022-10-05T20:29:37.446Z,12.96
2022-10-05T20:32:08.112Z,13.02
2022-10-05T20:34:35.257Z,13.04
2022-10-05T20:37:01.657Z,12.79
2022-10-05T20:39:28.110Z,12.84
2022-10-05T20:41:54.574Z,12.85
2022-10-05T20:44:21.021Z,12.80
2022-10-05T20:46:48.166Z,12.68
2022-10-05T20:49:14.663Z,12.59
2022-10-05T20:51:41.178Z,12.50
2022-10-05T20:54:07.909Z,12.61
2022-10-05T20:56:34.402Z,12.63
2022-10-05T20:59:00.879Z,12.63
2022-10-05T21:01:28.877Z,12.61
2022-10-05T21:03:55.758Z,12.61
2022-10-05T21:06:22.305Z,12.52
2022-10-05T21:08:50.857Z,12.56
2022-10-05T21:11:17.337Z,12.46
2022-10-05T21:13:47.095Z,12.43
2022-10-05T21:16:18.513Z,12.43
2022-10-05T21:18:46.900Z,12.37
2022-10-05T21:21:14.802Z,12.28
2022-10-05T21:23:41.243Z,12.26
2022-10-05T21:26:08.007Z,12.25
2022-10-05T21:28:34.815Z,12.28
2022-10-05T21:31:01.404Z,12.27
2022-10-05T21:33:28.167Z,12.08
2022-10-05T21:35:54.855Z,12.00
2022-10-05T21:38:21.311Z,11.90
2022-10-05T21:40:47.746Z,11.95
2022-10-05T21:43:14.469Z,11.89
2022-10-05T21:45:41.608Z,11.95
2022-10-05T21:48:08.252Z,11.96
2022-10-05T21:50:35.105Z,11.82
2022-10-05T21:53:02.973Z,11.85
2022-10-05T21:55:29.507Z,11.88
2022-10-05T21:57:57.302Z,11.75
2022-10-05T22:00:23.766Z,11.88
2022-10-05T22:02:50.280Z,11.90
2022-10-05T22:05:16.845Z,11.89
2022-10-05T22:07:43.339Z,11.84
2022-10-05T22:10:09.843Z,11.85
2022-10-05T22:12:36.558Z,11.85
2022-10-05T22:15:05.233Z,11.67
2022-10-05T22:17:31.962Z,11.68
2022-10-05T22:19:58.981Z,11.68
2022-10-05T22:22:26.473Z,11.69
2022-10-05T22:24:53.301Z,11.59
2022-10-05T22:27:20.786Z,11.51
2022-10-05T22:29:47.359Z,11.46
2022-10-05T22:32:13.762Z,11.42
2022-10-05T22:34:40.174Z,11.27
2022-10-05T22:37:06.920Z,11.39
2022-10-05T22:39:33.374Z,11.36
2022-10-05T22:41:59.774Z,11.37
2022-10-05T22:44:26.194Z,11.28
2022-10-05T22:46:52.622Z,11.29
2022-10-05T22:49:19.461Z,11.26
2022-10-05T22:51:45.971Z,11.33
2022-10-05T22:54:12.382Z,11.26
2022-10-05T22:56:38.790Z,11.32
2022-10-05T22:59:05.250Z,11.18
2022-10-05T23:01:31.723Z,11.19
2022-10-05T23:03:58.240Z,11.08
2022-10-05T23:06:27.753Z,11.21
2022-10-05T23:08:54.755Z,11.08
2022-10-05T23:11:23.601Z,11.20
2022-10-05T23:13:52.183Z,11.04
2022-10-05T23:16:20.190Z,10.99
2022-10-05T23:18:51.114Z,10.95
2022-10-05T23:21:18.207Z,11.02
2022-10-05T23:23:49.029Z,10.98
2022-10-05T23:26:16.079Z,10.73
2022-10-05T23:28:46.559Z,10.77
2022-10-05T23:31:14.853Z,10.82
2022-10-05T23:33:41.313Z,10.76
2022-10-05T23:36:09.029Z,10.67
2022-10-05T23:38:36.068Z,10.67
2022-10-05T23:41:02.814Z,10.81
2022-10-05T23:43:29.583Z,10.69
2022-10-05T23:45:56.345Z,10.86
2022-10-05T23:48:22.887Z,10.90
2022-10-05T23:50:49.887Z,10.92
2022-10-05T23:53:16.767Z,10.88
2022-10-05T23:55:43.205Z,10.92
2022-10-05T23:58:10.034Z,10.89
